createdAt,value
2018-11-11T00:00:45.082Z,15.15
2018-11-11T00:01:45.108Z,15.20
2018-11-11T00:02:45.126Z,15.36
2018-11-11T00:03:45.131Z,15.36
2018-11-11T00:04:45.155Z,15.36
2018-11-11T00:05:45.174Z,15.26
2018-11-11T00:06:45.194Z,15.31
2018-11-11T00:07:45.222Z,15.35
2018-11-11T00:08:45.230Z,15.49
2018-11-11T00:09:45.252Z,15.41
2018-11-11T00:10:45.270Z,15.23
2018-11-11T00:11:45.290Z,15.20
2018-11-11T00:12:45.300Z,15.27
2018-11-11T00:13:45.327Z,15.27
2018-11-11T00:14:45.397Z,15.20
2018-11-11T00:15:45.367Z,15.27
2018-11-11T00:16:45.383Z,15.26
2018-11-11T00:17:45.393Z,15.21
2018-11-11T00:18:45.431Z,15.27
2018-11-11T00:19:45.437Z,15.36
2018-11-11T00:20:45.465Z,15.27
2018-11-11T00:21:45.617Z,15.21
2018-11-11T00:22:45.515Z,15.19
2018-11-11T00:23:45.547Z,15.19
2018-11-11T00:24:45.534Z,15.23
2018-11-11T00:25:45.559Z,15.27
2018-11-11T00:26:45.581Z,15.17
2018-11-11T00:27:45.602Z,15.27
2018-11-11T00:28:45.724Z,15.24
2018-11-11T00:29:45.628Z,15.35
2018-11-11T00:30:45.649Z,15.49
2018-11-11T00:31:45.672Z,15.38
2018-11-11T00:32:45.682Z,15.33
2018-11-11T00:33:45.701Z,15.27
2018-11-11T00:34:45.769Z,15.28
2018-11-11T00:35:45.738Z,15.27
2018-11-11T00:36:45.764Z,15.24
2018-11-11T00:37:45.787Z,15.20
2018-11-11T00:38:45.796Z,15.24
2018-11-11T00:39:45.874Z,15.36
2018-11-11T00:40:45.835Z,15.23
2018-11-11T00:41:45.859Z,15.17
2018-11-11T00:42:45.897Z,15.19
2018-11-11T00:43:45.917Z,15.19
2018-11-11T00:44:45.903Z,15.23
2018-11-11T00:45:45.938Z,15.13
2018-11-11T00:46:45.956Z,15.24
2018-11-11T00:47:45.983Z,15.09
2018-11-11T00:48:45.986Z,15.08
2018-11-11T00:49:46.007Z,15.23
2018-11-11T00:50:46.021Z,15.20
2018-11-11T00:51:46.048Z,15.13
2018-11-11T00:52:46.061Z,15.05
2018-11-11T00:53:46.169Z,15.12
2018-11-11T00:54:46.104Z,15.23
2018-11-11T00:55:46.117Z,15.17
2018-11-11T00:56:46.153Z,15.12
2018-11-11T00:57:46.160Z,15.21
2018-11-11T00:58:46.187Z,15.21
2018-11-11T00:59:46.190Z,15.17
2018-11-11T01:00:46.219Z,15.35
2018-11-11T01:01:46.224Z,15.33
2018-11-11T01:02:46.246Z,15.39
2018-11-11T01:03:46.272Z,15.27
2018-11-11T01:04:46.293Z,15.17
2018-11-11T01:05:46.317Z,15.41
2018-11-11T01:06:46.368Z,15.35
2018-11-11T01:07:46.365Z,15.36
2018-11-11T01:08:46.357Z,15.39
2018-11-11T01:09:46.388Z,15.31
2018-11-11T01:10:46.442Z,15.20
2018-11-11T01:11:46.430Z,15.05
2018-11-11T01:12:46.472Z,15.08
2018-11-11T01:13:46.485Z,15.08
2018-11-11T01:14:46.484Z,15.03
2018-11-11T01:15:46.513Z,15.05
2018-11-11T01:16:46.527Z,15.01
2018-11-11T01:17:46.544Z,15.05
2018-11-11T01:18:46.558Z,15.12
2018-11-11T01:19:46.582Z,15.03
2018-11-11T01:20:46.591Z,15.11
2018-11-11T01:21:46.608Z,15.06
2018-11-11T01:22:46.635Z,15.08
2018-11-11T01:23:46.673Z,15.21
2018-11-11T01:24:46.675Z,15.15
2018-11-11T01:25:46.683Z,15.06
2018-11-11T01:26:46.714Z,15.09
2018-11-11T01:27:46.776Z,15.21
2018-11-11T01:28:46.748Z,15.26
2018-11-11T01:29:46.766Z,15.19
2018-11-11T01:30:46.785Z,15.13
2018-11-11T01:31:46.806Z,14.95
2018-11-11T01:32:46.822Z,14.93
2018-11-11T01:33:46.836Z,14.83
2018-11-11T01:34:46.913Z,15.03
2018-11-11T01:35:46.874Z,15.01
2018-11-11T01:36:46.893Z,14.94
2018-11-11T01:37:46.922Z,15.20
2018-11-11T01:38:46.928Z,15.27
2018-11-11T01:39:46.954Z,15.19
2018-11-11T01:40:46.979Z,15.03
2018-11-11T01:41:46.993Z,14.98
2018-11-11T01:42:47.014Z,15.17
2018-11-11T01:43:47.038Z,15.17
2018-11-11T01:44:47.068Z,15.09
2018-11-11T01:45:47.088Z,15.08
2018-11-11T01:46:47.081Z,15.03
2018-11-11T01:47:47.101Z,15.24
2018-11-11T01:48:47.118Z,15.12
2018-11-11T01:49:47.173Z,15.02
2018-11-11T01:50:47.162Z,15.01
2018-11-11T01:51:47.183Z,15.05
2018-11-11T01:52:47.248Z,15.08
2018-11-11T01:53:47.232Z,15.24
2018-11-11T01:54:47.262Z,15.09
2018-11-11T01:55:47.263Z,15.09
2018-11-11T01:56:47.282Z,15.03
2018-11-11T01:57:47.327Z,15.11
2018-11-11T01:58:47.330Z,15.26
2018-11-11T01:59:47.331Z,15.15
2018-11-11T02:00:47.351Z,15.06
2018-11-11T02:01:47.377Z,15.12
2018-11-11T02:02:47.407Z,15.03
2018-11-11T02:03:47.407Z,14.99
2018-11-11T02:04:47.479Z,14.93
2018-11-11T02:05:47.455Z,14.93
2018-11-11T02:06:47.459Z,14.94
2018-11-11T02:07:47.514Z,15.01
2018-11-11T02:08:47.497Z,14.99
2018-11-11T02:09:47.591Z,15.09
2018-11-11T02:10:47.582Z,15.13
2018-11-11T02:11:47.561Z,15.08
2018-11-11T02:12:47.584Z,15.01
2018-11-11T02:13:47.645Z,14.93
2018-11-11T02:14:47.629Z,15.01
2018-11-11T02:15:47.631Z,14.83
2018-11-11T02:16:47.656Z,14.91
2018-11-11T02:17:47.677Z,14.99
2018-11-11T02:18:47.694Z,14.88
2018-11-11T02:19:47.720Z,14.78
2018-11-11T02:20:47.730Z,14.81
2018-11-11T02:21:47.863Z,15.02
2018-11-11T02:22:47.766Z,15.19
2018-11-11T02:23:47.784Z,15.01
2018-11-11T02:24:47.805Z,14.93
2018-11-11T02:25:47.820Z,14.80
2018-11-11T02:26:47.841Z,14.86
2018-11-11T02:27:47.905Z,15.03
2018-11-11T02:28:47.906Z,14.91
2018-11-11T02:29:47.907Z,14.94
2018-11-11T02:30:47.936Z,14.86
2018-11-11T02:31:47.939Z,15.02
2018-11-11T02:32:47.953Z,14.95
2018-11-11T02:33:47.987Z,15.05
2018-11-11T02:34:47.990Z,15.08
2018-11-11T02:35:48.028Z,14.93
2018-11-11T02:36:48.039Z,14.90
2018-11-11T02:37:48.043Z,14.87
2018-11-11T02:38:48.075Z,14.90
2018-11-11T02:39:48.091Z,14.78
2018-11-11T02:40:48.108Z,14.80
2018-11-11T02:41:48.138Z,14.81
2018-11-11T02:42:48.143Z,15.02
2018-11-11T02:43:48.162Z,14.93
2018-11-11T02:44:48.219Z,14.75
2018-11-11T02:45:48.197Z,14.74
2018-11-11T02:46:48.223Z,14.90
2018-11-11T02:47:48.240Z,14.91
2018-11-11T02:48:48.258Z,14.84
2018-11-11T02:49:48.277Z,14.80
2018-11-11T02:50:48.289Z,14.83
2018-11-11T02:51:48.303Z,14.75
2018-11-11T02:52:48.357Z,14.75
2018-11-11T02:53:48.356Z,14.75
2018-11-11T02:54:48.412Z,14.80
2018-11-11T02:55:48.388Z,14.78
2018-11-11T02:56:48.407Z,14.95
2018-11-11T02:57:48.435Z,15.01
2018-11-11T02:58:48.438Z,14.95
2018-11-11T02:59:48.461Z,14.84
2018-11-11T03:00:48.538Z,14.78
2018-11-11T03:01:48.505Z,14.81
2018-11-11T03:02:48.518Z,14.86
2018-11-11T03:03:48.535Z,14.84
2018-11-11T03:04:48.564Z,14.78
2018-11-11T03:05:48.613Z,14.95
2018-11-11T03:06:48.595Z,14.88
2018-11-11T03:07:48.616Z,14.87
2018-11-11T03:08:48.635Z,14.93
2018-11-11T03:09:48.680Z,14.90
2018-11-11T03:10:48.669Z,14.94
2018-11-11T03:11:48.679Z,14.71
2018-11-11T03:12:48.712Z,14.78
2018-11-11T03:13:48.729Z,14.72
2018-11-11T03:14:48.747Z,14.88
2018-11-11T03:15:48.774Z,14.91
2018-11-11T03:16:48.774Z,14.94
2018-11-11T03:17:48.815Z,14.94
2018-11-11T03:18:48.832Z,14.81
2018-11-11T03:19:48.833Z,14.69
2018-11-11T03:20:48.852Z,14.64
2018-11-11T03:21:48.873Z,14.71
2018-11-11T03:22:48.892Z,14.81
2018-11-11T03:23:48.912Z,14.64
2018-11-11T03:24:48.926Z,14.80
2018-11-11T03:25:48.943Z,14.90
2018-11-11T03:27:48.989Z,14.93
2018-11-11T03:28:48.999Z,14.91
2018-11-11T03:29:49.045Z,14.93
2018-11-11T03:30:49.036Z,14.81
2018-11-11T03:31:49.082Z,14.69
2018-11-11T03:32:49.092Z,14.72
2018-11-11T03:33:49.098Z,14.78
2018-11-11T03:34:49.112Z,14.91
2018-11-11T03:35:49.138Z,14.94
2018-11-11T03:36:49.158Z,14.78
2018-11-11T03:37:49.175Z,14.65
2018-11-11T03:38:49.203Z,14.74
2018-11-11T03:39:49.214Z,14.81
2018-11-11T03:40:49.257Z,14.81
2018-11-11T03:41:49.246Z,14.78
2018-11-11T03:42:49.264Z,14.65
2018-11-11T03:43:49.284Z,14.81
2018-11-11T03:44:49.377Z,14.75
2018-11-11T03:45:49.313Z,14.61
2018-11-11T03:46:49.353Z,14.69
2018-11-11T03:47:49.359Z,14.65
2018-11-11T03:48:49.376Z,14.54
2018-11-11T03:49:49.392Z,14.57
2018-11-11T03:50:49.417Z,14.49
2018-11-11T03:51:49.423Z,14.52
2018-11-11T03:52:49.451Z,14.65
2018-11-11T03:53:49.473Z,14.81
2018-11-11T03:55:49.510Z,14.57
2018-11-11T03:56:49.517Z,14.53
2018-11-11T03:57:49.637Z,14.53
2018-11-11T03:58:49.703Z,14.46
2018-11-11T03:59:49.592Z,14.49
2018-11-11T04:00:49.615Z,14.61
2018-11-11T04:01:49.622Z,14.67
2018-11-11T04:02:49.632Z,14.72
2018-11-11T04:03:49.660Z,14.52
2018-11-11T04:04:49.668Z,14.53
2018-11-11T04:05:49.689Z,14.56
2018-11-11T04:06:49.706Z,14.62
2018-11-11T04:07:49.732Z,14.47
2018-11-11T04:08:49.758Z,14.53
2018-11-11T04:09:49.760Z,14.65
2018-11-11T04:10:49.795Z,14.56
2018-11-11T04:11:49.801Z,14.47
2018-11-11T04:12:49.891Z,14.52
2018-11-11T04:13:49.844Z,14.71
2018-11-11T04:14:49.867Z,14.84
2018-11-11T04:15:49.877Z,14.75
2018-11-11T04:16:49.898Z,14.61
2018-11-11T04:17:49.914Z,14.50
2018-11-11T04:18:49.926Z,14.53
2018-11-11T04:19:49.947Z,14.46
2018-11-11T04:20:49.961Z,14.53
2018-11-11T04:21:49.985Z,14.68
2018-11-11T04:22:50.013Z,14.72
2018-11-11T04:23:50.057Z,14.75
2018-11-11T04:24:50.046Z,14.75
2018-11-11T04:25:50.153Z,14.53
2018-11-11T04:26:50.096Z,14.46
2018-11-11T04:27:50.145Z,14.38
2018-11-11T04:28:50.125Z,14.44
2018-11-11T04:29:50.134Z,14.43
2018-11-11T04:30:50.147Z,14.37
2018-11-11T04:31:50.181Z,14.39
2018-11-11T04:32:50.188Z,14.46
2018-11-11T04:33:50.210Z,14.52
2018-11-11T04:34:50.230Z,14.62
2018-11-11T04:35:50.255Z,14.71
2018-11-11T04:36:50.268Z,14.71
2018-11-11T04:37:50.285Z,14.54
2018-11-11T04:38:50.298Z,14.39
2018-11-11T04:39:50.314Z,14.49
2018-11-11T04:40:50.335Z,14.56
2018-11-11T04:41:50.358Z,14.49
2018-11-11T04:42:50.378Z,14.60
2018-11-11T04:43:50.393Z,14.64
2018-11-11T04:44:50.412Z,14.80
2018-11-11T04:45:50.430Z,14.78
2018-11-11T04:46:50.455Z,14.81
2018-11-11T04:47:50.490Z,14.78
2018-11-11T04:48:50.502Z,14.68
2018-11-11T04:49:50.509Z,14.64
2018-11-11T04:50:50.527Z,14.69
2018-11-11T04:51:50.537Z,14.64
2018-11-11T04:52:50.564Z,14.57
2018-11-11T04:53:50.591Z,14.52
2018-11-11T04:54:50.602Z,14.61
2018-11-11T04:55:50.617Z,14.75
2018-11-11T04:56:50.679Z,14.61
2018-11-11T04:57:50.655Z,14.62
2018-11-11T04:58:50.692Z,14.54
2018-11-11T04:59:50.704Z,14.64
2018-11-11T05:00:50.767Z,14.71
2018-11-11T05:01:50.744Z,14.56
2018-11-11T05:02:50.752Z,14.46
2018-11-11T05:03:50.781Z,14.62
2018-11-11T05:04:50.865Z,14.57
2018-11-11T05:05:50.810Z,14.44
2018-11-11T05:06:50.817Z,14.68
2018-11-11T05:07:50.840Z,14.60
2018-11-11T05:08:50.879Z,14.90
2018-11-11T05:09:50.874Z,14.94
2018-11-11T05:10:50.896Z,14.87
2018-11-11T05:11:50.934Z,14.93
2018-11-11T05:12:50.933Z,14.91
2018-11-11T05:13:50.965Z,14.90
2018-11-11T05:14:50.974Z,14.93
2018-11-11T05:15:50.993Z,14.98
2018-11-11T05:16:51.009Z,14.83
2018-11-11T05:17:51.079Z,14.80
2018-11-11T05:18:51.047Z,14.75
2018-11-11T05:19:51.060Z,14.86
2018-11-11T05:20:51.079Z,14.90
2018-11-11T05:21:51.151Z,14.83
2018-11-11T05:22:51.115Z,14.72
2018-11-11T05:23:51.134Z,14.87
2018-11-11T05:24:51.162Z,14.75
2018-11-11T05:25:51.170Z,14.84
2018-11-11T05:26:51.192Z,14.84
2018-11-11T05:27:51.207Z,14.91
2018-11-11T05:28:51.257Z,14.93
2018-11-11T05:29:51.262Z,14.75
2018-11-11T05:30:51.295Z,14.71
2018-11-11T05:31:51.293Z,14.65
2018-11-11T05:32:51.303Z,14.83
2018-11-11T05:33:51.324Z,14.72
2018-11-11T05:34:51.353Z,14.68
2018-11-11T05:35:51.352Z,14.83
2018-11-11T05:36:51.382Z,14.90
2018-11-11T05:37:51.399Z,14.93
2018-11-11T05:38:51.413Z,15.03
2018-11-11T05:39:51.491Z,15.08
2018-11-11T05:41:51.470Z,15.06
2018-11-11T05:42:51.488Z,15.12
2018-11-11T05:43:51.510Z,15.09
2018-11-11T05:44:51.525Z,15.05
2018-11-11T05:45:51.600Z,15.17
2018-11-11T05:46:51.560Z,15.06
2018-11-11T05:47:51.585Z,15.06
2018-11-11T05:48:51.599Z,14.94
2018-11-11T05:49:51.621Z,14.95
2018-11-11T05:50:51.631Z,14.81
2018-11-11T05:51:51.699Z,14.80
2018-11-11T05:52:51.677Z,14.81
2018-11-11T05:53:51.693Z,14.71
2018-11-11T05:54:51.717Z,14.65
2018-11-11T05:55:51.732Z,14.65
2018-11-11T05:56:51.756Z,14.72
2018-11-11T05:57:51.766Z,14.78
2018-11-11T05:58:51.789Z,14.88
2018-11-11T05:59:51.800Z,14.84
2018-11-11T06:00:51.840Z,14.72
2018-11-11T06:01:51.863Z,14.71
2018-11-11T06:02:51.858Z,14.68
2018-11-11T06:03:51.879Z,14.64
2018-11-11T06:04:51.896Z,14.65
2018-11-11T06:05:51.910Z,14.34
2018-11-11T06:06:51.934Z,14.16
2018-11-11T06:07:51.970Z,14.32
2018-11-11T06:08:51.973Z,14.37
2018-11-11T06:09:51.984Z,14.21
2018-11-11T06:10:52.022Z,14.27
2018-11-11T06:11:52.027Z,14.21
2018-11-11T06:12:52.044Z,14.31
2018-11-11T06:13:52.061Z,14.20
2018-11-11T06:14:52.109Z,14.21
2018-11-11T06:15:52.117Z,14.20
2018-11-11T06:16:52.112Z,14.16
2018-11-11T06:17:52.139Z,14.19
2018-11-11T06:18:52.160Z,14.01
2018-11-11T06:19:52.182Z,14.16
2018-11-11T06:20:52.194Z,14.19
2018-11-11T06:21:52.210Z,14.16
2018-11-11T06:22:52.231Z,14.16
2018-11-11T06:23:52.247Z,14.20
2018-11-11T06:24:52.321Z,14.13
2018-11-11T06:25:52.298Z,14.14
2018-11-11T06:26:52.359Z,14.09
2018-11-11T06:27:52.337Z,14.17
2018-11-11T06:28:52.347Z,14.17
2018-11-11T06:29:52.368Z,14.13
2018-11-11T06:30:52.380Z,14.28
2018-11-11T06:31:52.403Z,14.31
2018-11-11T06:32:52.414Z,14.44
2018-11-11T06:33:52.486Z,14.35
2018-11-11T06:34:52.449Z,14.46
2018-11-11T06:35:52.489Z,14.69
2018-11-11T06:36:52.488Z,14.72
2018-11-11T06:37:52.591Z,14.43
2018-11-11T06:38:52.535Z,14.43
2018-11-11T06:39:52.542Z,14.46
2018-11-11T06:40:52.562Z,14.46
2018-11-11T06:41:52.574Z,14.35
2018-11-11T06:42:52.590Z,14.37
2018-11-11T06:43:52.629Z,14.39
2018-11-11T06:44:52.624Z,14.56
2018-11-11T06:45:52.646Z,14.60
2018-11-11T06:46:52.670Z,14.54
2018-11-11T06:47:52.781Z,14.29
2018-11-11T06:48:52.700Z,14.31
2018-11-11T06:49:52.731Z,14.52
2018-11-11T06:50:52.739Z,14.81
2018-11-11T06:51:52.756Z,14.74
2018-11-11T06:52:52.779Z,14.74
2018-11-11T06:53:52.796Z,14.52
2018-11-11T06:54:52.813Z,14.47
2018-11-11T06:55:52.830Z,14.32
2018-11-11T06:56:52.851Z,14.39
2018-11-11T06:57:52.944Z,14.43
2018-11-11T06:58:52.888Z,14.53
2018-11-11T06:59:52.915Z,14.19
2018-11-11T07:00:52.926Z,14.44
2018-11-11T07:01:52.938Z,14.47
2018-11-11T07:02:52.964Z,14.67
2018-11-11T07:03:52.982Z,14.53
2018-11-11T07:04:53.003Z,14.38
2018-11-11T07:05:53.144Z,14.35
2018-11-11T07:06:53.033Z,14.27
2018-11-11T07:07:53.062Z,14.32
2018-11-11T07:08:53.081Z,14.21
2018-11-11T07:09:53.096Z,14.19
2018-11-11T07:10:53.102Z,14.31
2018-11-11T07:11:53.125Z,14.21
2018-11-11T07:12:53.141Z,14.19
2018-11-11T07:13:53.207Z,14.13
2018-11-11T07:14:53.185Z,14.12
2018-11-11T07:15:53.194Z,13.94
2018-11-11T07:16:53.213Z,14.14
2018-11-11T07:17:53.241Z,14.52
2018-11-11T07:18:53.295Z,14.65
2018-11-11T07:19:53.282Z,14.62
2018-11-11T07:20:53.323Z,14.35
2018-11-11T07:21:53.337Z,14.71
2018-11-11T07:22:53.339Z,14.67
2018-11-11T07:23:53.406Z,14.44
2018-11-11T07:24:53.366Z,14.49
2018-11-11T07:25:53.403Z,14.27
2018-11-11T07:26:53.406Z,14.47
2018-11-11T07:27:53.418Z,14.57
2018-11-11T07:28:53.453Z,14.43
2018-11-11T07:29:53.454Z,14.44
2018-11-11T07:30:53.485Z,14.61
2018-11-11T07:31:53.503Z,14.50
2018-11-11T07:32:53.513Z,14.50
2018-11-11T07:33:53.541Z,14.60
2018-11-11T07:34:53.543Z,14.65
2018-11-11T07:35:53.605Z,14.52
2018-11-11T07:36:53.585Z,14.52
2018-11-11T07:37:53.595Z,14.35
2018-11-11T07:38:53.624Z,14.61
2018-11-11T07:39:53.646Z,14.53
2018-11-11T07:40:53.665Z,14.50
2018-11-11T07:41:53.682Z,14.61
2018-11-11T07:42:53.693Z,14.46
2018-11-11T07:43:53.713Z,14.47
2018-11-11T07:44:53.737Z,14.44
2018-11-11T07:45:53.759Z,14.52
2018-11-11T07:46:53.782Z,14.44
2018-11-11T07:47:53.846Z,14.52
2018-11-11T07:48:53.815Z,14.71
2018-11-11T07:49:53.822Z,14.78
2018-11-11T07:50:53.845Z,14.83
2018-11-11T07:51:53.937Z,14.83
2018-11-11T07:52:53.877Z,14.84
2018-11-11T07:53:53.910Z,14.74
2018-11-11T07:54:53.938Z,14.81
2018-11-11T07:55:53.927Z,14.83
2018-11-11T07:56:53.954Z,14.83
2018-11-11T07:57:54.104Z,14.80
2018-11-11T07:58:53.992Z,14.88
2018-11-11T07:59:54.035Z,15.12
2018-11-11T08:00:54.031Z,15.21
2018-11-11T08:01:54.119Z,15.38
2018-11-11T08:02:54.059Z,15.42
2018-11-11T08:03:54.084Z,15.61
2018-11-11T08:04:54.103Z,15.60
2018-11-11T08:05:54.122Z,15.52
2018-11-11T08:06:54.144Z,15.66
2018-11-11T08:07:54.152Z,15.78
2018-11-11T08:08:54.197Z,15.70
2018-11-11T08:09:54.200Z,15.76
2018-11-11T08:10:54.224Z,15.85
2018-11-11T08:11:54.237Z,15.82
2018-11-11T08:12:54.254Z,15.92
2018-11-11T08:13:54.291Z,15.72
2018-11-11T08:14:54.291Z,15.79
2018-11-11T08:15:54.313Z,16.00
2018-11-11T08:16:54.411Z,15.86
2018-11-11T08:17:54.344Z,15.93
2018-11-11T08:18:54.358Z,15.88
2018-11-11T08:19:54.391Z,15.89
2018-11-11T08:20:54.406Z,15.85
2018-11-11T08:21:54.431Z,15.94
2018-11-11T08:23:54.491Z,15.89
2018-11-11T08:24:54.499Z,16.03
2018-11-11T08:25:54.510Z,16.22
2018-11-11T08:26:54.541Z,16.48
2018-11-11T08:27:54.546Z,16.44
2018-11-11T08:28:54.566Z,16.70
2018-11-11T08:29:54.581Z,16.48
2018-11-11T08:30:54.618Z,16.41
2018-11-11T08:31:54.618Z,16.37
2018-11-11T08:32:54.648Z,16.93
2018-11-11T08:33:54.665Z,17.70
2018-11-11T08:34:54.687Z,18.43
2018-11-11T08:35:54.743Z,18.49
2018-11-11T08:36:54.758Z,18.04
2018-11-11T08:37:54.759Z,18.00
2018-11-11T08:38:54.844Z,18.70
2018-11-11T08:39:54.792Z,19.39
2018-11-11T08:40:54.797Z,19.98
2018-11-11T08:41:54.827Z,20.23
2018-11-11T08:42:54.867Z,19.78
2018-11-11T08:43:54.865Z,19.42
2018-11-11T08:44:54.886Z,18.65
2018-11-11T08:45:54.903Z,18.64
2018-11-11T08:46:54.941Z,19.02
2018-11-11T08:47:54.969Z,19.24
2018-11-11T08:48:54.972Z,19.42
2018-11-11T08:49:55.132Z,19.65
2018-11-11T08:50:55.010Z,19.73
2018-11-11T08:51:55.029Z,20.50
2018-11-11T08:52:55.056Z,21.16
2018-11-11T08:53:55.096Z,21.16
2018-11-11T08:54:55.120Z,21.67
2018-11-11T08:55:55.118Z,22.04
2018-11-11T08:56:55.140Z,21.81
2018-11-11T08:57:55.199Z,20.66
2018-11-11T08:58:55.182Z,19.66
2018-11-11T08:59:55.204Z,19.23
2018-11-11T09:00:55.236Z,18.70
2018-11-11T09:01:55.256Z,18.44
2018-11-11T09:02:55.299Z,18.22
2018-11-11T09:03:55.308Z,18.13
2018-11-11T09:04:55.414Z,19.24
2018-11-11T09:05:55.368Z,20.72
2018-11-11T09:06:55.366Z,21.44
2018-11-11T09:07:55.434Z,21.74
2018-11-11T09:08:55.403Z,21.41
2018-11-11T09:09:55.443Z,20.38
2018-11-11T09:10:55.475Z,19.50
2018-11-11T09:11:55.482Z,18.79
2018-11-11T09:12:55.502Z,18.52
2018-11-11T09:13:55.615Z,18.24
2018-11-11T09:14:55.553Z,18.00
2018-11-11T09:15:55.590Z,17.88
2018-11-11T09:16:55.599Z,17.78
2018-11-11T09:17:55.604Z,17.78
2018-11-11T09:18:55.631Z,17.87
2018-11-11T09:19:55.657Z,18.74
2018-11-11T09:20:55.673Z,20.13
2018-11-11T09:21:55.697Z,21.32
2018-11-11T09:22:55.733Z,21.78
2018-11-11T09:23:55.867Z,22.38
2018-11-11T09:24:55.765Z,23.15
2018-11-11T09:25:55.833Z,23.15
2018-11-11T09:26:55.816Z,23.52
2018-11-11T09:27:55.837Z,23.27
2018-11-11T09:28:55.860Z,23.07
2018-11-11T09:29:55.872Z,22.77
2018-11-11T09:30:55.904Z,22.09
2018-11-11T09:31:55.926Z,21.06
2018-11-11T09:32:55.944Z,20.46
2018-11-11T09:33:55.975Z,20.35
2018-11-11T09:34:55.997Z,20.23
2018-11-11T09:35:56.027Z,20.42
2018-11-11T09:36:56.050Z,20.65
2018-11-11T09:37:56.072Z,20.93
2018-11-11T09:38:56.096Z,21.09
2018-11-11T09:39:56.126Z,21.02
2018-11-11T09:40:56.171Z,21.51
2018-11-11T09:41:56.213Z,21.91
2018-11-11T09:42:56.189Z,20.80
2018-11-11T09:43:56.208Z,21.11
2018-11-11T09:44:56.222Z,20.90
2018-11-11T09:45:56.246Z,21.54
2018-11-11T09:46:56.284Z,21.72
2018-11-11T09:47:56.415Z,21.09
2018-11-11T09:48:56.314Z,20.71
2018-11-11T09:49:56.371Z,20.35
2018-11-11T09:50:56.369Z,19.87
2018-11-11T09:51:56.381Z,19.33
2018-11-11T09:52:56.441Z,19.15
2018-11-11T09:53:56.462Z,19.11
2018-11-11T09:54:56.447Z,19.01
2018-11-11T09:55:56.471Z,19.35
2018-11-11T09:56:56.499Z,19.75
2018-11-11T09:57:56.535Z,19.88
2018-11-11T09:58:56.539Z,19.86
2018-11-11T09:59:56.652Z,19.75
2018-11-11T10:00:56.588Z,19.68
2018-11-11T10:01:56.613Z,20.05
2018-11-11T10:02:56.632Z,20.50
2018-11-11T10:03:56.680Z,20.30
2018-11-11T10:04:56.693Z,20.05
2018-11-11T10:05:56.702Z,19.88
2018-11-11T10:06:56.725Z,19.72
2018-11-11T10:07:56.753Z,20.06
2018-11-11T10:08:56.763Z,20.68
2018-11-11T10:09:56.779Z,20.79
2018-11-11T10:10:56.825Z,20.98
2018-11-11T10:11:56.826Z,20.65
2018-11-11T10:12:56.850Z,20.61
2018-11-11T10:13:56.878Z,20.53
2018-11-11T10:14:56.889Z,20.51
2018-11-11T10:15:56.911Z,20.65
2018-11-11T10:16:57.004Z,21.50
2018-11-11T10:17:56.958Z,21.78
2018-11-11T10:18:57.040Z,22.34
2018-11-11T10:19:57.032Z,22.87
2018-11-11T10:20:57.090Z,22.59
2018-11-11T10:21:57.059Z,22.57
2018-11-11T10:22:57.070Z,22.99
2018-11-11T10:23:57.099Z,22.74
2018-11-11T10:24:57.127Z,23.15
2018-11-11T10:25:57.123Z,23.02
2018-11-11T10:26:57.150Z,23.26
2018-11-11T10:27:57.250Z,22.46
2018-11-11T10:28:57.207Z,21.53
2018-11-11T10:29:57.225Z,20.66
2018-11-11T10:30:57.245Z,20.68
2018-11-11T10:31:57.257Z,20.72
2018-11-11T10:32:57.283Z,21.29
2018-11-11T10:33:57.300Z,21.04
2018-11-11T10:34:57.333Z,20.87
2018-11-11T10:35:57.340Z,20.72
2018-11-11T10:36:57.365Z,20.68
2018-11-11T10:37:57.382Z,20.47
2018-11-11T10:38:57.543Z,20.28
2018-11-11T10:39:57.456Z,20.16
2018-11-11T10:40:57.455Z,19.87
2018-11-11T10:41:57.484Z,19.72
2018-11-11T10:42:57.501Z,19.87
2018-11-11T10:43:57.517Z,19.76
2018-11-11T10:44:57.547Z,19.76
2018-11-11T10:46:57.581Z,19.80
2018-11-11T10:47:57.611Z,19.72
2018-11-11T10:48:57.630Z,19.76
2018-11-11T10:49:57.661Z,19.90
2018-11-11T10:50:57.669Z,20.02
2018-11-11T10:51:57.848Z,20.03
2018-11-11T10:52:57.742Z,20.12
2018-11-11T10:53:57.749Z,20.03
2018-11-11T10:54:57.792Z,19.73
2018-11-11T10:55:57.806Z,19.76
2018-11-11T10:56:57.821Z,19.86
2018-11-11T10:57:57.837Z,20.00
2018-11-11T10:58:57.854Z,19.86
2018-11-11T10:59:57.879Z,19.97
2018-11-11T11:00:57.900Z,19.86
2018-11-11T11:01:57.923Z,19.95
2018-11-11T11:02:57.981Z,20.06
2018-11-11T11:03:57.996Z,20.05
2018-11-11T11:04:58.009Z,20.12
2018-11-11T11:05:58.051Z,20.27
2018-11-11T11:06:58.054Z,20.23
2018-11-11T11:07:58.071Z,20.30
2018-11-11T11:08:58.106Z,20.30
2018-11-11T11:09:58.121Z,20.42
2018-11-11T11:10:58.159Z,20.56
2018-11-11T11:11:58.183Z,20.51
2018-11-11T11:12:58.199Z,20.64
2018-11-11T11:13:58.338Z,20.71
2018-11-11T11:14:58.261Z,20.77
2018-11-11T11:15:58.282Z,20.83
2018-11-11T11:16:58.327Z,20.86
2018-11-11T11:17:58.341Z,21.05
2018-11-11T11:18:58.360Z,21.06
2018-11-11T11:19:58.396Z,21.06
2018-11-11T11:20:58.424Z,20.89
2018-11-11T11:21:58.462Z,21.01
2018-11-11T11:22:58.494Z,21.09
2018-11-11T11:23:58.507Z,21.14
2018-11-11T11:24:58.615Z,20.91
2018-11-11T11:25:58.556Z,20.98
2018-11-11T11:26:58.593Z,21.27
2018-11-11T11:27:58.620Z,21.48
2018-11-11T11:28:58.643Z,21.51
2018-11-11T11:29:58.665Z,21.57
2018-11-11T11:30:58.722Z,21.61
2018-11-11T11:31:58.826Z,21.59
2018-11-11T11:32:58.751Z,21.51
2018-11-11T11:33:58.781Z,21.72
2018-11-11T11:34:58.799Z,21.60
2018-11-11T11:35:58.848Z,21.60
2018-11-11T11:36:58.884Z,21.61
2018-11-11T11:37:58.931Z,21.54
2018-11-11T11:38:58.924Z,21.63
2018-11-11T11:39:58.941Z,21.76
2018-11-11T11:40:58.962Z,21.78
2018-11-11T11:41:58.998Z,21.72
2018-11-11T11:42:59.016Z,21.75
2018-11-11T11:43:59.058Z,21.64
2018-11-11T11:44:59.056Z,21.21
2018-11-11T11:45:59.100Z,21.45
2018-11-11T11:46:59.108Z,21.19
2018-11-11T11:47:59.144Z,21.23
2018-11-11T11:48:59.166Z,21.16
2018-11-11T11:49:59.256Z,21.13
2018-11-11T11:50:59.212Z,20.95
2018-11-11T11:51:59.311Z,20.74
2018-11-11T11:52:59.320Z,20.90
2018-11-11T11:53:59.284Z,20.83
2018-11-11T11:54:59.311Z,20.90
2018-11-11T11:55:59.340Z,20.90
2018-11-11T11:56:59.368Z,20.84
2018-11-11T11:57:59.469Z,20.96
2018-11-11T11:58:59.413Z,20.76
2018-11-11T11:59:59.472Z,20.59
2018-11-11T12:00:59.457Z,20.81
2018-11-11T12:01:59.506Z,20.76
2018-11-11T12:02:59.508Z,20.74
2018-11-11T12:03:59.525Z,20.72
2018-11-11T12:04:59.563Z,20.69
2018-11-11T12:05:59.584Z,20.64
2018-11-11T12:06:59.597Z,20.76
2018-11-11T12:08:59.687Z,20.76
2018-11-11T12:09:59.692Z,20.64
2018-11-11T12:10:59.725Z,20.71
2018-11-11T12:11:59.726Z,20.58
2018-11-11T12:12:59.760Z,20.69
2018-11-11T12:13:59.796Z,20.74
2018-11-11T12:14:59.797Z,20.58
2018-11-11T12:15:59.814Z,20.53
2018-11-11T12:16:59.885Z,20.53
2018-11-11T12:17:59.867Z,20.47
2018-11-11T12:18:59.903Z,20.65
2018-11-11T12:19:59.908Z,20.76
2018-11-11T12:21:59.996Z,20.62
2018-11-11T12:23:00.028Z,20.65
2018-11-11T12:24:00.004Z,20.54
2018-11-11T12:25:00.031Z,20.53
2018-11-11T12:26:00.051Z,20.76
2018-11-11T12:27:00.089Z,20.50
2018-11-11T12:28:00.111Z,20.65
2018-11-11T12:29:00.134Z,20.65
2018-11-11T12:30:00.154Z,20.69
2018-11-11T12:31:00.292Z,20.64
2018-11-11T12:32:00.217Z,20.62
2018-11-11T12:33:00.219Z,20.58
2018-11-11T12:34:00.261Z,20.61
2018-11-11T12:35:00.316Z,20.68
2018-11-11T12:36:00.302Z,20.50
2018-11-11T12:37:00.325Z,20.54
2018-11-11T12:38:00.352Z,20.46
2018-11-11T12:39:00.426Z,20.39
2018-11-11T12:40:00.638Z,20.39
2018-11-11T12:41:00.406Z,20.53
2018-11-11T12:42:00.424Z,20.53
2018-11-11T12:43:00.456Z,20.39
2018-11-11T12:44:00.478Z,20.39
2018-11-11T12:45:00.507Z,20.49
2018-11-11T12:46:00.528Z,20.54
2018-11-11T12:47:00.647Z,20.51
2018-11-11T12:48:00.634Z,20.50
2018-11-11T12:49:00.672Z,20.59
2018-11-11T12:50:00.628Z,20.51
2018-11-11T12:51:00.644Z,20.53
2018-11-11T12:52:00.670Z,20.53
2018-11-11T12:53:00.707Z,20.46
2018-11-11T12:54:00.712Z,20.49
2018-11-11T12:55:00.732Z,20.54
2018-11-11T12:56:00.754Z,20.56
2018-11-11T12:57:00.779Z,20.51
2018-11-11T12:58:00.803Z,20.47
2018-11-11T12:59:00.881Z,20.46
2018-11-11T13:00:00.869Z,20.38